Time;durP1;ratioP1;P1;durP2;ratioP2;P2;SDS_P1;SDS_P2;PMS_P1;PMS_P2;Temp;Humidity;BMP_temperature;BMP_pressure;BME280_temperature;BME280_humidity;BME280_pressure;Samples;Min_cycle;Max_cycle;Signal;HPM_P1;HPM_P2
2022/04/29 00:01:03;;;;;;;1.30;1.30;;;6.30;99.90;;;;;;6176380;28;20213;-65
2022/04/29 00:04:12;;;;;;;2.23;1.27;;;6.20;99.90;;;;;;6176305;28;20256;-66
2022/04/29 00:07:19;;;;;;;6.23;2.13;;;6.20;99.90;;;;;;6175440;28;20237;-66
2022/04/29 00:10:24;;;;;;;1.60;1.50;;;6.20;99.90;;;;;;6175762;28;20203;-66
2022/04/29 00:13:31;;;;;;;1.60;1.50;;;6.30;99.90;;;;;;6175128;28;20241;-66
2022/04/29 00:16:38;;;;;;;6.17;1.60;;;6.20;99.90;;;;;;6176226;28;20561;-66
2022/04/29 00:19:45;;;;;;;2.93;1.50;;;6.30;99.90;;;;;;6174590;28;20269;-67
2022/04/29 00:22:52;;;;;;;1.50;1.50;;;6.00;99.90;;;;;;6175967;28;20234;-66
2022/04/29 00:25:57;;;;;;;6.27;1.70;;;6.00;99.90;;;;;;6175898;28;20244;-66
2022/04/29 00:29:03;;;;;;;7.20;1.60;;;6.00;99.90;;;;;;6175152;28;20632;-66
2022/04/29 00:32:09;;;;;;;7.40;1.50;;;5.90;99.90;;;;;;6175628;28;20214;-65
2022/04/29 00:35:15;;;;;;;4.50;1.90;;;6.00;99.90;;;;;;6175692;28;20214;-66
2022/04/29 00:38:21;;;;;;;4.47;1.60;;;6.00;99.90;;;;;;6172898;28;20234;-66
2022/04/29 00:41:27;;;;;;;3.07;1.60;;;5.90;99.90;;;;;;6173647;28;20212;-66
2022/04/29 00:44:33;;;;;;;9.47;2.13;;;5.90;99.90;;;;;;6174779;28;20242;-66
2022/04/29 00:47:38;;;;;;;10.03;1.97;;;5.70;99.90;;;;;;6174728;28;20233;-65
2022/04/29 00:50:44;;;;;;;3.13;2.20;;;5.70;99.90;;;;;;6173879;28;20645;-65
2022/04/29 00:53:51;;;;;;;10.53;2.20;;;5.80;99.90;;;;;;6174633;28;20594;-65
2022/04/29 00:56:57;;;;;;;12.00;2.00;;;5.80;99.90;;;;;;6173817;28;20213;-67
2022/04/29 01:00:08;;;;;;;7.70;2.20;;;5.80;99.90;;;;;;6157725;28;20225;-65
2022/04/29 01:03:17;;;;;;;6.33;1.70;;;5.80;99.90;;;;;;6168508;28;20234;-65
2022/04/29 01:06:26;;;;;;;7.90;2.37;;;5.70;99.90;;;;;;6175076;28;20242;-65
2022/04/29 01:09:32;;;;;;;7.23;2.63;;;5.80;99.90;;;;;;6174437;28;20249;-64
2022/04/29 01:12:41;;;;;;;6.60;1.97;;;5.80;99.90;;;;;;6174824;28;20255;-66
2022/04/29 01:15:48;;;;;;;16.93;2.93;;;5.80;99.90;;;;;;6173447;28;20233;-66
2022/04/29 01:18:54;;;;;;;11.57;2.40;;;5.70;99.90;;;;;;6174499;28;20260;-66
2022/04/29 01:22:02;;;;;;;14.67;2.90;;;5.80;99.90;;;;;;6174320;28;20206;-66
2022/04/29 01:25:11;;;;;;;7.67;2.10;;;5.60;99.90;;;;;;6157244;28;20619;-65
2022/04/29 01:28:20;;;;;;;12.63;2.30;;;5.40;99.90;;;;;;6157274;28;20532;-65
2022/04/29 01:31:27;;;;;;;6.57;1.80;;;5.50;99.90;;;;;;6173096;28;20210;-66
2022/04/29 01:34:33;;;;;;;8.47;2.50;;;5.50;99.90;;;;;;6156385;28;20287;-65
2022/04/29 01:37:40;;;;;;;5.03;2.00;;;5.60;99.90;;;;;;6172088;28;20240;-65
2022/04/29 01:40:45;;;;;;;9.00;2.07;;;5.60;99.90;;;;;;6173085;28;20225;-66
2022/04/29 01:43:55;;;;;;;6.07;1.90;;;5.70;99.90;;;;;;6171519;28;20647;-66
2022/04/29 01:47:00;;;;;;;3.17;1.57;;;5.60;99.90;;;;;;6156982;28;20213;-66
2022/04/29 01:50:26;;;;;;;4.30;1.70;;;5.50;99.90;;;;;;6175461;28;20660;-65
2022/04/29 01:53:32;;;;;;;7.50;1.57;;;5.50;99.90;;;;;;6175671;28;20241;-65
2022/04/29 01:56:39;;;;;;;2.53;1.50;;;5.70;99.90;;;;;;6176448;28;20210;-66
2022/04/29 01:59:48;;;;;;;3.20;1.50;;;5.70;99.90;;;;;;6176293;28;20242;-66
2022/04/29 02:03:10;;;;;;;3.10;1.60;;;5.50;99.90;;;;;;6158711;28;20687;-65
2022/04/29 02:06:18;;;;;;;4.20;1.73;;;5.40;99.90;;;;;;6172214;28;20233;-64
2022/04/29 02:09:24;;;;;;;2.50;1.40;;;5.30;99.90;;;;;;6176329;28;20244;-64
2022/04/29 02:12:30;;;;;;;2.73;1.73;;;5.30;99.90;;;;;;6177069;28;20695;-64
2022/04/29 02:15:36;;;;;;;7.13;1.57;;;5.40;99.90;;;;;;6179953;28;20212;-64
2022/04/29 02:18:43;;;;;;;2.03;1.50;;;5.30;99.90;;;;;;6158290;28;20653;-65
2022/04/29 02:21:49;;;;;;;1.70;1.50;;;5.20;99.90;;;;;;6172448;28;20548;-65
2022/04/29 02:24:55;;;;;;;7.00;1.63;;;5.20;99.90;;;;;;6173306;28;20248;-66
2022/04/29 02:28:02;;;;;;;3.33;1.90;;;5.10;99.90;;;;;;6172494;28;20251;-64
2022/04/29 02:31:08;;;;;;;7.83;1.57;;;5.20;99.90;;;;;;6172160;28;20213;-65
2022/04/29 02:34:13;;;;;;;3.90;1.80;;;5.20;99.90;;;;;;6171747;28;20244;-65
2022/04/29 02:37:18;;;;;;;7.07;2.30;;;5.30;99.90;;;;;;6173189;28;20228;-65
2022/04/29 02:40:29;;;;;;;1.73;1.53;;;5.30;99.90;;;;;;6171662;28;20230;-65
2022/04/29 02:43:35;;;;;;;1.60;1.50;;;5.30;99.90;;;;;;6155225;28;20246;-65
2022/04/29 02:47:06;;;;;;;2.30;1.20;;;5.40;99.90;;;;;;6172016;28;20213;-64
2022/04/29 02:50:07;;;;;;;2.77;1.13;;;5.40;99.90;;;;;;6171364;28;20222;-65
2022/04/29 02:53:15;;;;;;;1.17;1.10;;;5.50;99.90;;;;;;6171300;28;20592;-65
2022/04/29 02:56:21;;;;;;;1.00;1.00;;;5.50;99.90;;;;;;6155799;28;20209;-65
2022/04/29 02:59:44;;;;;;;0.80;0.80;;;5.50;99.90;;;;;;6171868;28;20264;-65
2022/04/29 03:02:50;;;;;;;0.90;0.90;;;5.30;99.90;;;;;;6169259;28;20232;-66
2022/04/29 03:05:57;;;;;;;1.00;1.00;;;5.30;99.80;;;;;;6175811;28;20683;-66
2022/04/29 03:09:02;;;;;;;1.17;1.17;;;5.30;99.50;;;;;;6175746;28;20245;-65
2022/04/29 03:12:12;;;;;;;0.87;0.87;;;5.30;99.80;;;;;;6176131;28;20205;-65
2022/04/29 03:15:18;;;;;;;1.07;1.07;;;5.40;99.20;;;;;;6157697;28;20284;-66
2022/04/29 03:18:32;;;;;;;1.33;1.07;;;5.30;99.20;;;;;;6157597;28;20238;-65
2022/04/29 03:21:38;;;;;;;0.97;0.97;;;5.30;99.40;;;;;;6158720;28;20242;-65
2022/04/29 03:24:43;;;;;;;1.33;0.90;;;5.30;99.40;;;;;;6174126;28;20240;-65
2022/04/29 03:27:50;;;;;;;1.40;0.80;;;5.20;99.50;;;;;;6174103;28;20233;-65
2022/04/29 03:30:56;;;;;;;0.93;0.93;;;5.30;99.10;;;;;;6174321;28;20220;-65
2022/04/29 03:34:05;;;;;;;1.00;1.00;;;5.20;98.70;;;;;;6174264;28;20240;-66
2022/04/29 03:37:10;;;;;;;1.27;1.07;;;5.20;98.80;;;;;;6175258;28;20210;-66
2022/04/29 03:40:15;;;;;;;0.80;0.80;;;5.10;98.80;;;;;;6176984;28;20220;-65
2022/04/29 03:43:23;;;;;;;0.93;0.93;;;5.20;98.80;;;;;;6175201;28;20253;-65
2022/04/29 03:46:30;;;;;;;0.97;0.90;;;5.10;98.70;;;;;;6174913;28;20558;-65
2022/04/29 03:49:41;;;;;;;0.97;0.97;;;5.10;98.70;;;;;;6175562;28;20244;-67
2022/04/29 03:53:00;;;;;;;1.97;1.37;;;5.20;98.70;;;;;;6173700;28;20244;-66
2022/04/29 03:56:11;;;;;;;1.30;0.90;;;5.20;98.40;;;;;;6158781;28;20232;-66
2022/04/29 03:59:18;;;;;;;5.50;1.00;;;5.10;98.10;;;;;;6157445;28;20336;-65
2022/04/29 04:02:23;;;;;;;0.87;0.87;;;5.10;98.30;;;;;;6157057;28;20230;-66
2022/04/29 04:05:30;;;;;;;1.07;1.07;;;5.10;98.00;;;;;;6173610;28;20574;-66
2022/04/29 04:08:36;;;;;;;0.90;0.90;;;5.10;97.90;;;;;;6119900;28;1130347;-66
2022/04/29 04:11:42;;;;;;;1.00;1.00;;;5.10;97.90;;;;;;6176201;28;20220;-67
2022/04/29 04:14:52;;;;;;;1.00;1.00;;;5.10;97.80;;;;;;6174523;28;20625;-66
2022/04/29 04:17:59;;;;;;;1.03;0.90;;;5.10;97.40;;;;;;6174023;28;20672;-65
2022/04/29 04:21:05;;;;;;;0.93;0.93;;;5.10;97.40;;;;;;6175015;28;20591;-65
2022/04/29 04:24:12;;;;;;;1.27;1.17;;;5.20;97.50;;;;;;6158151;28;20582;-65
2022/04/29 04:27:18;;;;;;;2.90;1.10;;;5.20;97.40;;;;;;6174648;28;20602;-65
2022/04/29 04:30:25;;;;;;;1.10;1.10;;;5.20;97.30;;;;;;6181400;28;20207;-65
2022/04/29 04:33:31;;;;;;;1.70;1.00;;;5.20;97.20;;;;;;6162746;28;20251;-66
2022/04/29 04:36:36;;;;;;;1.00;1.00;;;5.20;97.20;;;;;;6182828;28;20567;-67
2022/04/29 04:39:41;;;;;;;1.00;1.00;;;5.30;96.90;;;;;;6177999;28;20279;-67
2022/04/29 04:42:51;;;;;;;2.07;1.10;;;5.30;96.50;;;;;;6158138;28;20234;-66
2022/04/29 04:46:07;;;;;;;1.23;1.13;;;5.40;96.20;;;;;;6174180;28;20221;-66
2022/04/29 04:49:18;;;;;;;1.97;1.10;;;5.40;96.00;;;;;;6175513;28;20246;-66
2022/04/29 04:52:34;;;;;;;2.30;2.07;;;5.40;95.80;;;;;;6157465;28;20257;-66
2022/04/29 04:55:41;;;;;;;1.10;1.00;;;5.40;95.40;;;;;;6173907;28;20513;-68
2022/04/29 04:58:47;;;;;;;1.57;1.03;;;5.40;95.50;;;;;;6173801;28;20240;-66
2022/04/29 05:01:54;;;;;;;2.40;1.03;;;5.50;95.40;;;;;;6173983;28;20614;-66
2022/04/29 05:05:18;;;;;;;0.87;0.83;;;5.50;95.10;;;;;;6173975;28;20213;-66
2022/04/29 05:08:32;;;;;;;1.03;1.03;;;5.50;94.50;;;;;;6174867;28;20253;-65
2022/04/29 05:11:38;;;;;;;1.00;1.00;;;5.60;94.40;;;;;;6173743;28;20200;-66
2022/04/29 05:15:26;;;;;;;1.43;1.13;;;5.60;94.10;;;;;;6163676;28;20209;-67
2022/04/29 05:18:33;;;;;;;1.20;1.00;;;5.70;93.90;;;;;;6173488;28;20281;-66
2022/04/29 05:21:51;;;;;;;1.10;1.00;;;5.60;93.30;;;;;;6172696;28;20206;-65
2022/04/29 05:24:58;;;;;;;0.90;0.90;;;5.60;93.30;;;;;;6172553;28;20249;-66
2022/04/29 05:28:18;;;;;;;0.80;0.80;;;5.70;92.80;;;;;;6174416;28;20237;-66
2022/04/29 05:31:43;;;;;;;0.93;0.90;;;5.70;92.40;;;;;;6170582;28;20222;-66
2022/04/29 05:35:28;;;;;;;1.03;1.03;;;5.80;91.80;;;;;;6077488;29;20229;-65
2022/04/29 05:42:23;;;;;;;1.03;1.03;;;5.90;90.70;;;;;;6171639;28;20244;-65
2022/04/29 05:45:28;;;;;;;0.80;0.80;;;5.80;90.00;;;;;;6174189;28;20206;-66
2022/04/29 05:48:34;;;;;;;0.83;0.83;;;5.90;90.10;;;;;;6156357;28;20240;-66
2022/04/29 05:51:41;;;;;;;1.13;0.90;;;6.00;89.40;;;;;;6173230;28;20612;-65
2022/04/29 05:54:47;;;;;;;0.90;0.90;;;6.10;88.00;;;;;;6171836;28;20232;-67
2022/04/29 05:58:00;;;;;;;1.50;0.87;;;6.10;87.50;;;;;;6172687;28;20229;-65
2022/04/29 06:01:05;;;;;;;1.30;0.80;;;6.20;87.70;;;;;;6172893;28;20213;-65
2022/04/29 06:04:13;;;;;;;1.17;0.97;;;6.20;86.20;;;;;;6172036;28;20603;-65
2022/04/29 06:07:21;;;;;;;1.07;1.07;;;6.20;85.10;;;;;;6172093;28;20229;-66
2022/04/29 06:10:27;;;;;;;1.00;1.00;;;6.30;85.10;;;;;;6155948;28;20624;-65
2022/04/29 06:13:33;;;;;;;3.23;1.10;;;6.40;84.00;;;;;;6172044;28;20240;-65
2022/04/29 06:17:16;;;;;;;1.40;0.90;;;6.50;83.60;;;;;;6152201;28;20241;-65
2022/04/29 06:20:41;;;;;;;0.80;0.80;;;6.60;81.00;;;;;;6173859;28;20656;-65
2022/04/29 06:23:53;;;;;;;2.00;1.00;;;6.70;80.70;;;;;;6173230;28;20248;-65
2022/04/29 06:27:01;;;;;;;1.67;0.87;;;6.80;78.40;;;;;;6156129;28;20668;-66
2022/04/29 06:30:09;;;;;;;0.80;0.80;;;6.90;78.20;;;;;;6172169;28;20217;-65
2022/04/29 06:33:42;;;;;;;1.03;1.03;;;7.10;74.70;;;;;;6155988;28;20238;-67
2022/04/29 06:36:51;;;;;;;1.43;0.90;;;7.10;72.10;;;;;;6176807;28;20211;-66
2022/04/29 06:39:57;;;;;;;1.00;1.00;;;7.20;71.30;;;;;;6176438;28;20216;-65
2022/04/29 06:43:15;;;;;;;0.97;0.80;;;7.20;71.30;;;;;;6176220;28;20730;-65
2022/04/29 06:46:55;;;;;;;0.83;0.83;;;7.20;70.40;;;;;;6151329;28;20254;-66
2022/04/29 06:50:36;;;;;;;1.40;0.80;;;7.30;70.60;;;;;;6083198;28;20217;-66
2022/04/29 06:54:00;;;;;;;1.87;0.80;;;7.20;67.10;;;;;;6177725;28;20234;-66
2022/04/29 06:57:12;;;;;;;0.70;0.70;;;7.20;66.30;;;;;;6169372;28;20209;-66
2022/04/29 07:00:19;;;;;;;0.97;0.87;;;7.30;65.30;;;;;;6160628;28;20629;-66
2022/04/29 07:03:25;;;;;;;1.10;1.10;;;7.40;66.00;;;;;;6176133;28;20678;-66
2022/04/29 07:06:31;;;;;;;5.20;0.90;;;7.50;64.40;;;;;;6176788;28;20638;-65
2022/04/29 07:09:38;;;;;;;1.00;0.80;;;7.60;65.00;;;;;;6176041;28;20234;-65
2022/04/29 07:13:22;;;;;;;1.37;1.27;;;7.70;65.20;;;;;;6177588;28;20286;-65
2022/04/29 07:16:27;;;;;;;1.10;1.00;;;7.80;63.50;;;;;;6177950;28;20215;-64
2022/04/29 07:19:55;;;;;;;14.55;1.63;;;7.80;60.50;;;;;;6180620;28;20234;-65
2022/04/29 07:23:07;;;;;;;1.55;0.90;;;7.80;61.00;;;;;;6180029;28;20243;-66
2022/04/29 07:26:15;;;;;;;0.80;0.80;;;7.90;59.80;;;;;;6176165;28;20681;-65
2022/04/29 07:29:22;;;;;;;2.30;1.03;;;8.00;59.10;;;;;;6175288;28;20245;-65
2022/04/29 07:32:31;;;;;;;9.45;1.13;;;8.00;59.00;;;;;;6175142;28;20238;-65
2022/04/29 07:42:50;;;;;;;2.78;1.10;;;8.10;58.80;;;;;;6158622;28;20233;-66
2022/04/29 07:45:59;;;;;;;0.98;0.98;;;8.00;57.20;;;;;;6177076;28;20236;-66
2022/04/29 07:49:07;;;;;;;6.95;1.05;;;7.80;57.30;;;;;;6176390;28;20249;-65
2022/04/29 07:52:13;;;;;;;2.10;0.95;;;7.70;56.40;;;;;;6174795;28;20229;-66
2022/04/29 07:55:18;;;;;;;0.80;0.80;;;7.70;56.70;;;;;;6159537;28;20222;-66
2022/04/29 07:58:24;;;;;;;0.80;0.80;;;7.90;57.00;;;;;;6175090;28;20236;-66
2022/04/29 08:01:33;;;;;;;3.38;0.82;;;7.90;56.20;;;;;;6159548;28;20207;-66
2022/04/29 08:04:40;;;;;;;1.30;1.17;;;7.90;56.20;;;;;;6174854;28;20245;-65
2022/04/29 08:07:47;;;;;;;1.63;0.80;;;8.00;55.10;;;;;;6158625;28;20235;-65
2022/04/29 08:10:54;;;;;;;0.80;0.80;;;8.10;55.30;;;;;;6175385;28;20203;-66
2022/04/29 08:13:59;;;;;;;0.88;0.88;;;8.10;55.00;;;;;;6177603;28;20240;-65
2022/04/29 08:17:26;;;;;;;1.52;0.90;;;8.20;53.00;;;;;;6178976;28;20235;-66
2022/04/29 08:20:31;;;;;;;0.80;0.80;;;8.20;52.20;;;;;;6178354;28;20230;-66
2022/04/29 08:23:37;;;;;;;0.73;0.73;;;8.30;51.10;;;;;;6158352;28;20246;-64
2022/04/29 08:26:42;;;;;;;1.70;1.00;;;8.30;51.10;;;;;;6174998;28;20230;-65
2022/04/29 08:29:48;;;;;;;2.53;0.95;;;8.40;50.70;;;;;;6158165;28;20612;-66
2022/04/29 08:32:55;;;;;;;2.65;0.80;;;8.50;51.10;;;;;;6157387;28;20241;-66
2022/04/29 08:36:19;;;;;;;0.90;0.90;;;8.60;50.40;;;;;;6174919;28;20225;-66
2022/04/29 08:39:25;;;;;;;0.90;0.88;;;8.70;50.20;;;;;;6174142;28;20253;-66
2022/04/29 08:42:36;;;;;;;5.03;1.00;;;8.70;50.00;;;;;;6173235;28;20237;-66
2022/04/29 08:45:42;;;;;;;2.55;0.98;;;8.60;49.20;;;;;;6158534;28;20253;-66
2022/04/29 08:49:08;;;;;;;0.85;0.85;;;8.50;48.70;;;;;;6175209;28;20226;-66
2022/04/29 08:52:14;;;;;;;0.90;0.90;;;8.40;48.70;;;;;;6175642;28;20206;-67
2022/04/29 08:58:43;;;;;;;4.55;1.00;;;8.60;47.80;;;;;;6172216;28;20690;-66
2022/04/29 09:01:50;;;;;;;0.70;0.70;;;8.70;46.90;;;;;;6175817;28;20206;-66
2022/04/29 09:04:59;;;;;;;1.02;0.90;;;8.90;46.80;;;;;;6174299;28;20217;-65
2022/04/29 09:08:05;;;;;;;2.47;0.90;;;8.90;46.40;;;;;;6174451;28;20243;-65
2022/04/29 09:11:12;;;;;;;4.88;1.08;;;8.80;45.60;;;;;;6174981;28;20203;-66
2022/04/29 09:14:21;;;;;;;2.15;1.00;;;8.80;44.70;;;;;;6174339;28;20233;-66
2022/04/29 09:17:27;;;;;;;1.65;0.88;;;8.70;43.20;;;;;;6174778;28;20625;-66
2022/04/29 09:20:35;;;;;;;0.98;0.98;;;8.70;43.10;;;;;;6157533;28;20203;-66
2022/04/29 09:23:44;;;;;;;1.17;1.17;;;8.80;43.40;;;;;;6174663;28;20238;-66
2022/04/29 09:27:08;;;;;;;0.80;0.80;;;8.90;42.80;;;;;;6174089;28;20249;-66
2022/04/29 09:30:38;;;;;;;1.17;0.90;;;8.90;43.50;;;;;;6172844;28;20203;-65
2022/04/29 09:34:04;;;;;;;1.00;1.00;;;8.90;44.00;;;;;;6173709;28;20652;-65
2022/04/29 09:37:24;;;;;;;0.90;0.90;;;8.90;43.50;;;;;;6172741;28;20231;-65
2022/04/29 09:40:39;;;;;;;2.47;0.95;;;9.00;44.10;;;;;;6177894;28;20206;-66
2022/04/29 09:43:44;;;;;;;0.80;0.80;;;9.00;43.20;;;;;;6198173;28;20234;-66
2022/04/29 09:46:50;;;;;;;0.90;0.90;;;9.00;43.40;;;;;;6198647;28;20313;-67
2022/04/29 09:49:59;;;;;;;2.75;0.90;;;9.10;43.00;;;;;;6197484;28;20224;-65
2022/04/29 09:53:19;;;;;;;1.48;1.38;;;9.10;42.50;;;;;;6196663;28;20253;-66
2022/04/29 09:56:24;;;;;;;0.80;0.80;;;9.20;42.90;;;;;;6198386;28;20220;-66
2022/04/29 09:59:33;;;;;;;0.70;0.70;;;9.20;42.10;;;;;;6197777;28;20234;-67
2022/04/29 10:02:42;;;;;;;1.48;0.80;;;9.20;42.70;;;;;;6197392;28;20237;-65
2022/04/29 10:05:49;;;;;;;1.40;1.08;;;9.20;42.80;;;;;;6196283;28;20214;-66
2022/04/29 10:08:59;;;;;;;1.10;1.10;;;9.30;42.20;;;;;;6197468;28;20237;-67
2022/04/29 10:12:10;;;;;;;4.28;0.88;;;9.30;42.40;;;;;;6197259;28;20209;-67
2022/04/29 10:15:20;;;;;;;5.60;1.00;;;9.40;42.00;;;;;;6196266;28;20210;-66
2022/04/29 10:22:11;;;;;;;2.60;0.95;;;9.40;41.90;;;;;;6195703;28;20210;-66
2022/04/29 10:25:25;;;;;;;1.20;0.80;;;9.50;41.50;;;;;;6197898;28;20217;-65
2022/04/29 10:28:30;;;;;;;0.80;0.80;;;9.40;41.20;;;;;;6197131;28;20238;-65
2022/04/29 10:31:36;;;;;;;0.60;0.60;;;9.60;42.00;;;;;;6198004;28;20213;-67
2022/04/29 10:34:41;;;;;;;0.90;0.90;;;9.60;40.70;;;;;;6197223;28;20226;-65
2022/04/29 10:37:49;;;;;;;0.85;0.85;;;9.60;40.80;;;;;;6195684;28;20238;-66
2022/04/29 10:41:14;;;;;;;0.80;0.80;;;9.60;40.70;;;;;;6184959;28;20207;-65
2022/04/29 10:44:19;;;;;;;0.88;0.88;;;9.70;40.80;;;;;;6173539;28;20230;-67
2022/04/29 10:47:36;;;;;;;0.70;0.70;;;9.50;40.30;;;;;;6172516;28;20234;-66
2022/04/29 10:51:17;;;;;;;0.90;0.90;;;9.50;40.30;;;;;;6167226;28;20213;-66
2022/04/29 10:54:58;;;;;;;0.68;0.68;;;9.60;40.80;;;;;;6140561;28;20250;-66
2022/04/29 10:58:20;;;;;;;0.70;0.70;;;9.70;40.90;;;;;;6165378;28;20230;-66
2022/04/29 11:01:31;;;;;;;0.80;0.80;;;9.80;40.70;;;;;;6174415;28;20661;-65
2022/04/29 11:04:48;;;;;;;0.70;0.70;;;9.80;40.20;;;;;;6173917;28;20226;-65
2022/04/29 11:08:07;;;;;;;0.70;0.70;;;9.70;40.60;;;;;;6173327;28;20242;-66
2022/04/29 11:11:15;;;;;;;1.75;0.88;;;9.70;41.20;;;;;;6174474;28;20300;-65
2022/04/29 11:14:31;;;;;;;0.77;0.77;;;9.80;40.90;;;;;;6173041;28;20593;-66
2022/04/29 11:17:45;;;;;;;1.80;0.82;;;9.80;40.30;;;;;;6172908;28;20226;-65
2022/04/29 11:20:56;;;;;;;0.70;0.70;;;9.90;40.20;;;;;;6174678;28;20210;-68
2022/04/29 11:27:33;;;;;;;0.70;0.70;;;10.10;40.10;;;;;;6175826;28;20238;-65
2022/04/29 11:30:43;;;;;;;0.60;0.60;;;10.10;39.60;;;;;;6176047;28;20566;-64
2022/04/29 11:33:52;;;;;;;0.80;0.80;;;10.10;39.20;;;;;;6177122;28;20275;-66
2022/04/29 11:36:58;;;;;;;2.63;0.82;;;10.10;38.70;;;;;;6176282;28;20648;-65
2022/04/29 11:40:05;;;;;;;1.58;0.98;;;10.10;40.30;;;;;;6177508;28;20691;-66
2022/04/29 11:43:12;;;;;;;0.93;0.93;;;10.30;39.50;;;;;;6174624;28;20238;-65
2022/04/29 11:46:19;;;;;;;0.80;0.80;;;10.10;39.00;;;;;;6177058;28;20670;-65
2022/04/29 11:49:29;;;;;;;1.25;0.82;;;10.20;38.90;;;;;;6159144;28;20246;-67
2022/04/29 11:52:40;;;;;;;0.80;0.80;;;10.30;39.00;;;;;;6176519;28;20238;-65
2022/04/29 11:55:51;;;;;;;0.75;0.70;;;10.40;39.00;;;;;;6176137;28;20211;-65
2022/04/29 11:58:57;;;;;;;1.27;0.70;;;10.30;38.70;;;;;;6175606;28;20245;-65
2022/04/29 12:02:05;;;;;;;0.75;0.75;;;10.30;39.30;;;;;;6175918;28;20229;-67
2022/04/29 12:05:11;;;;;;;0.93;0.93;;;10.30;39.50;;;;;;6176316;28;20206;-65
2022/04/29 12:08:17;;;;;;;1.00;1.00;;;10.30;39.10;;;;;;6175676;28;20279;-66
2022/04/29 12:11:29;;;;;;;3.65;1.20;;;10.30;39.10;;;;;;6174873;28;20620;-66
2022/04/29 12:14:35;;;;;;;0.80;0.80;;;10.10;39.40;;;;;;6176395;28;20265;-65
2022/04/29 12:17:42;;;;;;;0.80;0.80;;;10.10;39.10;;;;;;6175751;28;20235;-65
2022/04/29 12:20:58;;;;;;;0.90;0.90;;;10.10;39.60;;;;;;6176485;28;20683;-65
2022/04/29 12:24:13;;;;;;;2.58;0.80;;;10.10;39.40;;;;;;6175179;28;20241;-65
2022/04/29 12:27:30;;;;;;;0.70;0.70;;;10.30;39.50;;;;;;6180958;28;20652;-66
2022/04/29 12:37:33;;;;;;;0.70;0.70;;;10.50;39.40;;;;;;6182505;28;20241;-65
2022/04/29 12:40:44;;;;;;;1.98;0.95;;;10.50;38.80;;;;;;6178005;28;20680;-68
2022/04/29 12:43:50;;;;;;;0.70;0.70;;;10.60;39.40;;;;;;6176832;28;20235;-66
2022/04/29 12:46:55;;;;;;;0.70;0.70;;;10.50;38.90;;;;;;6176087;28;20266;-67
2022/04/29 12:50:26;;;;;;;0.63;0.63;;;10.50;38.50;;;;;;6174597;28;20237;-67
2022/04/29 12:53:32;;;;;;;1.70;0.90;;;10.50;38.30;;;;;;6175371;28;20702;-65
2022/04/29 12:56:37;;;;;;;3.13;1.00;;;10.50;39.30;;;;;;6199475;28;20214;-66
2022/04/29 12:59:45;;;;;;;2.20;1.00;;;10.70;39.10;;;;;;6199348;28;20236;-65
2022/04/29 13:03:00;;;;;;;2.85;0.80;;;10.70;38.90;;;;;;6198999;28;20229;-65
2022/04/29 13:06:08;;;;;;;1.27;0.65;;;10.50;38.30;;;;;;6199012;28;20234;-66
2022/04/29 13:09:14;;;;;;;1.00;1.00;;;10.50;39.10;;;;;;6198432;28;20264;-67
2022/04/29 13:12:20;;;;;;;2.10;0.70;;;10.90;38.70;;;;;;6198604;28;20240;-67
2022/04/29 13:15:41;;;;;;;1.45;1.08;;;11.30;37.40;;;;;;6181442;28;20207;-66
2022/04/29 13:18:53;;;;;;;2.13;0.77;;;11.00;37.20;;;;;;6197178;28;20245;-65
2022/04/29 13:21:59;;;;;;;0.80;0.80;;;10.90;37.60;;;;;;6198318;28;20205;-66
2022/04/29 13:25:12;;;;;;;3.10;0.80;;;11.00;37.90;;;;;;6197568;28;20206;-64
2022/04/29 13:28:19;;;;;;;0.70;0.70;;;11.00;37.80;;;;;;6197020;28;20249;-66
2022/04/29 13:31:24;;;;;;;2.40;0.90;;;10.80;37.50;;;;;;6198910;28;20649;-66
2022/04/29 13:34:30;;;;;;;3.50;0.90;;;10.80;38.10;;;;;;6197837;28;20236;-65
2022/04/29 13:37:39;;;;;;;0.90;0.90;;;10.90;38.40;;;;;;6196749;28;20260;-66
2022/04/29 13:41:03;;;;;;;0.90;0.82;;;11.00;38.00;;;;;;6186654;28;20213;-66
2022/04/29 13:44:08;;;;;;;3.80;1.00;;;11.10;38.90;;;;;;6173189;28;20242;-66
2022/04/29 13:47:15;;;;;;;4.18;0.90;;;11.20;39.60;;;;;;6172958;28;20210;-66
2022/04/29 13:50:20;;;;;;;2.92;0.85;;;11.30;38.90;;;;;;6173420;28;20305;-66
2022/04/29 13:53:27;;;;;;;7.15;1.20;;;11.50;37.90;;;;;;6173514;28;20227;-66
2022/04/29 13:56:32;;;;;;;0.70;0.70;;;11.50;38.00;;;;;;6173808;28;20210;-66
2022/04/29 13:59:38;;;;;;;0.80;0.80;;;11.50;37.30;;;;;;6172984;28;20241;-65
2022/04/29 14:02:43;;;;;;;2.60;0.93;;;11.30;37.30;;;;;;6173322;28;20256;-65
2022/04/29 14:05:50;;;;;;;0.80;0.80;;;11.40;37.20;;;;;;6173643;28;20203;-66
2022/04/29 14:08:57;;;;;;;5.70;1.00;;;11.20;36.80;;;;;;6171368;28;20230;-66
2022/04/29 14:12:02;;;;;;;0.80;0.80;;;11.20;37.40;;;;;;6173082;28;20664;-65
2022/04/29 14:15:11;;;;;;;1.58;0.90;;;11.40;37.70;;;;;;6173288;28;20229;-66
2022/04/29 14:18:22;;;;;;;0.95;0.70;;;11.60;37.50;;;;;;6171096;28;20628;-66
2022/04/29 14:21:27;;;;;;;0.85;0.85;;;11.70;37.40;;;;;;6173356;28;20221;-66
2022/04/29 14:24:34;;;;;;;3.08;0.93;;;11.60;37.00;;;;;;6173143;28;20724;-66
2022/04/29 14:27:40;;;;;;;0.90;0.90;;;11.70;37.10;;;;;;6172901;28;20234;-65
2022/04/29 14:30:46;;;;;;;0.90;0.90;;;11.80;37.10;;;;;;6172678;28;20677;-66
2022/04/29 14:33:52;;;;;;;1.58;1.13;;;11.80;36.70;;;;;;6172983;28;20237;-65
2022/04/29 14:36:58;;;;;;;1.92;1.33;;;11.60;36.80;;;;;;6172417;28;20668;-66
2022/04/29 14:40:06;;;;;;;4.25;0.90;;;11.60;36.90;;;;;;6173379;28;20203;-67
2022/04/29 14:43:13;;;;;;;0.82;0.82;;;11.60;36.70;;;;;;6172713;28;20231;-66
2022/04/29 14:46:19;;;;;;;0.93;0.93;;;11.40;36.70;;;;;;6173854;28;20214;-65
2022/04/29 14:49:27;;;;;;;0.82;0.82;;;11.60;36.40;;;;;;6173008;28;20305;-66
2022/04/29 14:52:33;;;;;;;0.93;0.93;;;11.70;36.40;;;;;;6173063;28;20234;-66
2022/04/29 14:55:39;;;;;;;3.05;0.98;;;11.80;37.40;;;;;;6173574;28;20217;-66
2022/04/29 14:58:45;;;;;;;0.90;0.90;;;11.80;37.40;;;;;;6177612;28;20245;-67
2022/04/29 15:01:53;;;;;;;1.73;0.90;;;11.80;37.20;;;;;;6177834;28;20218;-65
2022/04/29 15:04:59;;;;;;;1.02;0.98;;;11.90;36.00;;;;;;6177592;28;20211;-67
2022/04/29 15:08:06;;;;;;;1.10;1.10;;;11.70;35.60;;;;;;6177030;28;20549;-65
2022/04/29 15:18:16;;;;;;;0.85;0.73;;;11.60;36.30;;;;;;6084148;28;20257;-66
2022/04/29 15:21:21;;;;;;;2.72;0.95;;;11.60;36.20;;;;;;6177260;28;20215;-66
2022/04/29 15:24:27;;;;;;;4.72;1.00;;;11.70;36.50;;;;;;6176991;28;20238;-66
2022/04/29 15:27:34;;;;;;;1.20;0.60;;;11.70;35.70;;;;;;6176481;28;20232;-67
2022/04/29 15:30:43;;;;;;;1.05;0.80;;;11.80;35.70;;;;;;6177273;28;20231;-65
2022/04/29 15:33:49;;;;;;;2.63;1.45;;;11.80;35.50;;;;;;6177074;28;20234;-66
2022/04/29 15:36:55;;;;;;;1.25;1.15;;;11.90;36.80;;;;;;6177910;28;20211;-67
2022/04/29 15:40:00;;;;;;;3.50;1.05;;;11.90;36.30;;;;;;6176035;28;20209;-66
2022/04/29 15:43:10;;;;;;;0.90;0.90;;;11.90;36.00;;;;;;6176321;28;20234;-67
2022/04/29 15:46:15;;;;;;;0.90;0.90;;;12.00;37.00;;;;;;6177026;28;20229;-66
2022/04/29 15:49:21;;;;;;;1.20;0.80;;;12.10;36.80;;;;;;6176582;28;20321;-66
2022/04/29 15:52:27;;;;;;;0.73;0.73;;;12.00;36.70;;;;;;6176795;28;20234;-66
2022/04/29 15:55:34;;;;;;;2.00;1.00;;;12.00;36.10;;;;;;6176940;28;20217;-65
2022/04/29 15:58:41;;;;;;;0.80;0.80;;;12.00;36.50;;;;;;6176296;28;20234;-65
2022/04/29 16:01:46;;;;;;;1.38;0.70;;;12.00;36.30;;;;;;6176712;28;20657;-66
2022/04/29 16:04:51;;;;;;;0.73;0.73;;;11.90;36.30;;;;;;6176625;28;20231;-65
2022/04/29 16:07:58;;;;;;;2.50;0.70;;;11.90;36.30;;;;;;6176104;28;20724;-66
2022/04/29 16:11:04;;;;;;;1.02;0.75;;;12.00;36.70;;;;;;6176424;28;20226;-66
2022/04/29 16:14:10;;;;;;;1.52;0.75;;;12.00;36.60;;;;;;6175891;28;20238;-66
2022/04/29 16:17:16;;;;;;;0.80;0.80;;;11.90;36.30;;;;;;6176339;28;20569;-66
2022/04/29 16:20:33;;;;;;;4.50;0.90;;;12.00;36.50;;;;;;6176122;28;20225;-65
2022/04/29 16:27:02;;;;;;;2.53;0.90;;;11.80;40.00;;;;;;6175541;28;20579;-68
2022/04/29 16:30:11;;;;;;;0.95;0.95;;;11.60;44.00;;;;;;6176345;28;20203;-66
2022/04/29 16:33:17;;;;;;;25.48;1.88;;;10.90;46.40;;;;;;6175413;28;20242;-67
2022/04/29 16:36:22;;;;;;;4.80;3.92;;;10.70;48.00;;;;;;6175957;28;20206;-66
2022/04/29 16:39:28;;;;;;;3.80;1.23;;;10.50;48.60;;;;;;6173959;28;20234;-66
2022/04/29 16:42:34;;;;;;;3.88;3.15;;;10.60;48.90;;;;;;6175948;28;20239;-66
2022/04/29 16:45:41;;;;;;;4.47;3.20;;;10.30;49.90;;;;;;6176165;28;20214;-68
2022/04/29 16:48:47;;;;;;;4.80;1.17;;;10.20;50.30;;;;;;6175870;28;20694;-67
2022/04/29 16:51:53;;;;;;;1.52;1.23;;;10.10;50.80;;;;;;6158115;28;20241;-65
2022/04/29 16:54:58;;;;;;;2.28;0.80;;;10.20;51.10;;;;;;6175314;28;20222;-66
2022/04/29 17:01:35;;;;;;;1.45;0.90;;;10.10;51.80;;;;;;6175370;28;20232;-65
2022/04/29 17:04:41;;;;;;;2.53;1.00;;;10.00;52.00;;;;;;6175122;28;20242;-65
2022/04/29 17:07:46;;;;;;;1.58;1.00;;;9.90;52.30;;;;;;6175045;28;20239;-65
2022/04/29 17:10:52;;;;;;;1.42;1.38;;;9.80;52.60;;;;;;6175649;28;20217;-66
2022/04/29 17:13:57;;;;;;;2.50;1.20;;;9.80;52.80;;;;;;6175324;28;20241;-67
2022/04/29 17:17:05;;;;;;;4.50;0.90;;;9.80;52.80;;;;;;6174639;28;20210;-68